sensor_id;sensor_type;location;lat;lon;timestamp;P1;durP1;ratioP1;P2;durP2;ratioP2
67979;SDS011;54760;47.490;19.030;2023-04-03T00:01:01;5.53;;;4.18;;
67979;SDS011;54760;47.490;19.030;2023-04-03T00:03:26;5.72;;;4.30;;
67979;SDS011;54760;47.490;19.030;2023-04-03T00:05:52;5.60;;;4.10;;
67979;SDS011;54760;47.490;19.030;2023-04-03T00:08:18;6.03;;;4.40;;
67979;SDS011;54760;47.490;19.030;2023-04-03T00:10:44;5.65;;;4.18;;
67979;SDS011;54760;47.490;19.030;2023-04-03T00:13:09;7.05;;;4.45;;
67979;SDS011;54760;47.490;19.030;2023-04-03T00:15:35;6.05;;;4.25;;
67979;SDS011;54760;47.490;19.030;2023-04-03T00:18:01;4.93;;;4.18;;
67979;SDS011;54760;47.490;19.030;2023-04-03T00:20:27;5.32;;;4.15;;
67979;SDS011;54760;47.490;19.030;2023-04-03T00:22:53;5.10;;;3.95;;
67979;SDS011;54760;47.490;19.030;2023-04-03T00:25:18;6.68;;;4.47;;
67979;SDS011;54760;47.490;19.030;2023-04-03T00:27:44;5.68;;;4.35;;
67979;SDS011;54760;47.490;19.030;2023-04-03T00:30:11;6.55;;;4.40;;
67979;SDS011;54760;47.490;19.030;2023-04-03T00:32:39;4.82;;;4.03;;
67979;SDS011;54760;47.490;19.030;2023-04-03T00:35:05;5.55;;;4.05;;
67979;SDS011;54760;47.490;19.030;2023-04-03T00:37:31;5.35;;;3.80;;
67979;SDS011;54760;47.490;19.030;2023-04-03T00:39:57;5.45;;;3.95;;
67979;SDS011;54760;47.490;19.030;2023-04-03T00:42:23;5.50;;;4.07;;
67979;SDS011;54760;47.490;19.030;2023-04-03T00:47:15;5.22;;;3.80;;
67979;SDS011;54760;47.490;19.030;2023-04-03T00:49:42;4.78;;;3.80;;
67979;SDS011;54760;47.490;19.030;2023-04-03T00:52:10;5.55;;;3.95;;
67979;SDS011;54760;47.490;19.030;2023-04-03T00:54:40;5.03;;;3.60;;
67979;SDS011;54760;47.490;19.030;2023-04-03T00:57:06;4.95;;;3.70;;
67979;SDS011;54760;47.490;19.030;2023-04-03T00:59:34;4.30;;;3.53;;
67979;SDS011;54760;47.490;19.030;2023-04-03T01:02:02;5.00;;;3.67;;
67979;SDS011;54760;47.490;19.030;2023-04-03T01:04:31;4.30;;;3.40;;
67979;SDS011;54760;47.490;19.030;2023-04-03T01:07:00;5.53;;;3.72;;
67979;SDS011;54760;47.490;19.030;2023-04-03T01:09:29;6.32;;;4.03;;
67979;SDS011;54760;47.490;19.030;2023-04-03T01:12:12;5.03;;;3.75;;
67979;SDS011;54760;47.490;19.030;2023-04-03T01:15:00;5.13;;;3.87;;
67979;SDS011;54760;47.490;19.030;2023-04-03T01:17:44;4.57;;;3.33;;
67979;SDS011;54760;47.490;19.030;2023-04-03T01:25:34;4.57;;;3.37;;
67979;SDS011;54760;47.490;19.030;2023-04-03T01:28:03;4.30;;;3.37;;
67979;SDS011;54760;47.490;19.030;2023-04-03T01:30:31;4.25;;;3.22;;
67979;SDS011;54760;47.490;19.030;2023-04-03T01:32:59;3.87;;;3.00;;
67979;SDS011;54760;47.490;19.030;2023-04-03T01:35:25;4.40;;;3.30;;
67979;SDS011;54760;47.490;19.030;2023-04-03T01:37:50;4.40;;;3.17;;
67979;SDS011;54760;47.490;19.030;2023-04-03T01:40:16;4.50;;;3.10;;
67979;SDS011;54760;47.490;19.030;2023-04-03T01:42:42;5.03;;;3.15;;
67979;SDS011;54760;47.490;19.030;2023-04-03T01:45:07;4.95;;;3.37;;
67979;SDS011;54760;47.490;19.030;2023-04-03T01:47:33;4.45;;;3.12;;
67979;SDS011;54760;47.490;19.030;2023-04-03T01:49:58;3.50;;;2.78;;
67979;SDS011;54760;47.490;19.030;2023-04-03T01:52:24;3.80;;;2.92;;
67979;SDS011;54760;47.490;19.030;2023-04-03T01:54:49;3.90;;;2.62;;
67979;SDS011;54760;47.490;19.030;2023-04-03T01:57:15;4.78;;;2.87;;
67979;SDS011;54760;47.490;19.030;2023-04-03T01:59:41;3.90;;;2.80;;
67979;SDS011;54760;47.490;19.030;2023-04-03T02:02:06;4.47;;;2.97;;
67979;SDS011;54760;47.490;19.030;2023-04-03T02:04:32;4.25;;;2.90;;
67979;SDS011;54760;47.490;19.030;2023-04-03T02:06:57;4.60;;;3.15;;
67979;SDS011;54760;47.490;19.030;2023-04-03T02:09:23;5.28;;;3.12;;
67979;SDS011;54760;47.490;19.030;2023-04-03T02:11:48;3.67;;;2.60;;
67979;SDS011;54760;47.490;19.030;2023-04-03T02:14:14;4.25;;;2.62;;
67979;SDS011;54760;47.490;19.030;2023-04-03T02:16:39;4.10;;;2.78;;
67979;SDS011;54760;47.490;19.030;2023-04-03T02:19:05;5.28;;;3.08;;
67979;SDS011;54760;47.490;19.030;2023-04-03T02:21:31;4.28;;;2.72;;
67979;SDS011;54760;47.490;19.030;2023-04-03T02:23:56;3.80;;;2.70;;
67979;SDS011;54760;47.490;19.030;2023-04-03T02:26:22;4.37;;;2.42;;
67979;SDS011;54760;47.490;19.030;2023-04-03T02:28:47;3.72;;;2.90;;
67979;SDS011;54760;47.490;19.030;2023-04-03T02:31:13;3.50;;;2.67;;
67979;SDS011;54760;47.490;19.030;2023-04-03T02:33:39;3.60;;;2.70;;
67979;SDS011;54760;47.490;19.030;2023-04-03T02:36:05;3.53;;;2.37;;
67979;SDS011;54760;47.490;19.030;2023-04-03T02:38:31;3.58;;;2.47;;
67979;SDS011;54760;47.490;19.030;2023-04-03T02:41:15;4.37;;;2.65;;
67979;SDS011;54760;47.490;19.030;2023-04-03T02:43:41;5.32;;;2.83;;
67979;SDS011;54760;47.490;19.030;2023-04-03T02:46:06;5.28;;;2.95;;
67979;SDS011;54760;47.490;19.030;2023-04-03T02:48:32;4.32;;;2.67;;
67979;SDS011;54760;47.490;19.030;2023-04-03T02:50:57;4.28;;;2.62;;
67979;SDS011;54760;47.490;19.030;2023-04-03T02:53:23;4.50;;;2.90;;
67979;SDS011;54760;47.490;19.030;2023-04-03T02:55:48;4.70;;;2.80;;
67979;SDS011;54760;47.490;19.030;2023-04-03T02:58:14;3.50;;;2.80;;
67979;SDS011;54760;47.490;19.030;2023-04-03T03:00:40;3.53;;;2.40;;
67979;SDS011;54760;47.490;19.030;2023-04-03T03:03:05;4.40;;;2.62;;
67979;SDS011;54760;47.490;19.030;2023-04-03T03:05:31;3.53;;;2.53;;
67979;SDS011;54760;47.490;19.030;2023-04-03T03:07:57;4.75;;;2.58;;
67979;SDS011;54760;47.490;19.030;2023-04-03T03:10:23;3.65;;;2.55;;
67979;SDS011;54760;47.490;19.030;2023-04-03T03:12:48;6.47;;;3.08;;
67979;SDS011;54760;47.490;19.030;2023-04-03T03:15:14;3.08;;;2.50;;
67979;SDS011;54760;47.490;19.030;2023-04-03T03:17:42;3.67;;;2.83;;
67979;SDS011;54760;47.490;19.030;2023-04-03T03:20:08;4.32;;;2.53;;
67979;SDS011;54760;47.490;19.030;2023-04-03T03:22:34;3.75;;;2.80;;
67979;SDS011;54760;47.490;19.030;2023-04-03T03:25:00;4.55;;;2.92;;
67979;SDS011;54760;47.490;19.030;2023-04-03T03:27:27;4.95;;;3.12;;
67979;SDS011;54760;47.490;19.030;2023-04-03T03:29:52;3.87;;;2.85;;
67979;SDS011;54760;47.490;19.030;2023-04-03T03:32:18;3.95;;;2.85;;
67979;SDS011;54760;47.490;19.030;2023-04-03T03:34:43;4.35;;;2.95;;
67979;SDS011;54760;47.490;19.030;2023-04-03T03:37:08;3.95;;;2.87;;
67979;SDS011;54760;47.490;19.030;2023-04-03T03:39:34;3.42;;;2.65;;
67979;SDS011;54760;47.490;19.030;2023-04-03T03:42:00;3.87;;;2.85;;
67979;SDS011;54760;47.490;19.030;2023-04-03T03:44:25;4.03;;;2.80;;
67979;SDS011;54760;47.490;19.030;2023-04-03T03:46:51;4.95;;;2.60;;
67979;SDS011;54760;47.490;19.030;2023-04-03T03:49:16;4.93;;;3.05;;
67979;SDS011;54760;47.490;19.030;2023-04-03T03:51:42;4.18;;;2.85;;
67979;SDS011;54760;47.490;19.030;2023-04-03T03:54:07;4.20;;;2.80;;
67979;SDS011;54760;47.490;19.030;2023-04-03T03:56:33;4.50;;;3.08;;
67979;SDS011;54760;47.490;19.030;2023-04-03T03:58:58;5.78;;;3.35;;
67979;SDS011;54760;47.490;19.030;2023-04-03T04:01:24;4.80;;;3.00;;
67979;SDS011;54760;47.490;19.030;2023-04-03T04:03:50;4.72;;;2.78;;
67979;SDS011;54760;47.490;19.030;2023-04-03T04:06:15;6.75;;;3.45;;
67979;SDS011;54760;47.490;19.030;2023-04-03T04:08:41;3.80;;;2.80;;
67979;SDS011;54760;47.490;19.030;2023-04-03T04:11:08;4.35;;;3.28;;
67979;SDS011;54760;47.490;19.030;2023-04-03T04:13:34;5.25;;;3.45;;
67979;SDS011;54760;47.490;19.030;2023-04-03T04:16:00;5.25;;;3.00;;
67979;SDS011;54760;47.490;19.030;2023-04-03T04:18:26;3.80;;;3.12;;
67979;SDS011;54760;47.490;19.030;2023-04-03T04:20:52;4.97;;;3.08;;
67979;SDS011;54760;47.490;19.030;2023-04-03T04:23:17;4.95;;;3.00;;
67979;SDS011;54760;47.490;19.030;2023-04-03T04:25:47;5.15;;;3.42;;
67979;SDS011;54760;47.490;19.030;2023-04-03T04:28:14;4.22;;;3.30;;
67979;SDS011;54760;47.490;19.030;2023-04-03T04:30:40;3.78;;;2.92;;
67979;SDS011;54760;47.490;19.030;2023-04-03T04:33:05;4.35;;;3.25;;
67979;SDS011;54760;47.490;19.030;2023-04-03T04:35:33;6.07;;;3.15;;
67979;SDS011;54760;47.490;19.030;2023-04-03T04:37:59;5.80;;;3.00;;
67979;SDS011;54760;47.490;19.030;2023-04-03T04:40:25;6.85;;;3.00;;
67979;SDS011;54760;47.490;19.030;2023-04-03T04:42:51;3.50;;;2.83;;
67979;SDS011;54760;47.490;19.030;2023-04-03T04:45:16;4.53;;;3.20;;
67979;SDS011;54760;47.490;19.030;2023-04-03T04:47:42;4.90;;;3.05;;
67979;SDS011;54760;47.490;19.030;2023-04-03T04:50:07;4.47;;;3.10;;
67979;SDS011;54760;47.490;19.030;2023-04-03T04:52:33;4.12;;;2.87;;
67979;SDS011;54760;47.490;19.030;2023-04-03T04:54:59;5.25;;;2.83;;
67979;SDS011;54760;47.490;19.030;2023-04-03T04:57:25;5.28;;;2.87;;
67979;SDS011;54760;47.490;19.030;2023-04-03T04:59:50;3.42;;;2.75;;
67979;SDS011;54760;47.490;19.030;2023-04-03T05:02:16;6.57;;;3.00;;
67979;SDS011;54760;47.490;19.030;2023-04-03T05:04:42;7.18;;;3.50;;
67979;SDS011;54760;47.490;19.030;2023-04-03T05:07:07;5.12;;;3.50;;
67979;SDS011;54760;47.490;19.030;2023-04-03T05:09:32;4.50;;;3.10;;
67979;SDS011;54760;47.490;19.030;2023-04-03T05:11:58;4.40;;;3.00;;
67979;SDS011;54760;47.490;19.030;2023-04-03T05:14:23;4.15;;;3.03;;
67979;SDS011;54760;47.490;19.030;2023-04-03T05:16:49;3.95;;;3.30;;
67979;SDS011;54760;47.490;19.030;2023-04-03T05:19:18;4.45;;;3.17;;
67979;SDS011;54760;47.490;19.030;2023-04-03T05:21:44;7.30;;;3.30;;
67979;SDS011;54760;47.490;19.030;2023-04-03T05:24:09;4.25;;;3.08;;
67979;SDS011;54760;47.490;19.030;2023-04-03T05:26:34;3.28;;;2.80;;
67979;SDS011;54760;47.490;19.030;2023-04-03T05:29:00;3.92;;;2.70;;
67979;SDS011;54760;47.490;19.030;2023-04-03T05:31:25;4.72;;;3.28;;
67979;SDS011;54760;47.490;19.030;2023-04-03T05:33:54;5.95;;;3.30;;
67979;SDS011;54760;47.490;19.030;2023-04-03T05:36:20;4.05;;;2.87;;
67979;SDS011;54760;47.490;19.030;2023-04-03T05:38:45;5.10;;;3.25;;
67979;SDS011;54760;47.490;19.030;2023-04-03T05:41:11;3.72;;;2.92;;
67979;SDS011;54760;47.490;19.030;2023-04-03T05:43:36;7.25;;;3.22;;
67979;SDS011;54760;47.490;19.030;2023-04-03T05:46:03;4.70;;;3.03;;
67979;SDS011;54760;47.490;19.030;2023-04-03T05:48:33;5.65;;;3.08;;
67979;SDS011;54760;47.490;19.030;2023-04-03T05:50:59;4.45;;;2.97;;
67979;SDS011;54760;47.490;19.030;2023-04-03T05:53:25;5.87;;;3.05;;
67979;SDS011;54760;47.490;19.030;2023-04-03T05:55:53;4.80;;;2.60;;
67979;SDS011;54760;47.490;19.030;2023-04-03T05:58:19;6.22;;;2.80;;
67979;SDS011;54760;47.490;19.030;2023-04-03T06:00:44;7.95;;;2.85;;
67979;SDS011;54760;47.490;19.030;2023-04-03T06:03:10;3.62;;;2.78;;
67979;SDS011;54760;47.490;19.030;2023-04-03T06:05:35;3.42;;;2.50;;
67979;SDS011;54760;47.490;19.030;2023-04-03T06:08:01;5.28;;;2.85;;
67979;SDS011;54760;47.490;19.030;2023-04-03T06:10:28;4.82;;;3.20;;
67979;SDS011;54760;47.490;19.030;2023-04-03T06:12:53;5.47;;;3.10;;
67979;SDS011;54760;47.490;19.030;2023-04-03T06:15:19;4.20;;;2.92;;
67979;SDS011;54760;47.490;19.030;2023-04-03T06:17:45;4.45;;;2.72;;
67979;SDS011;54760;47.490;19.030;2023-04-03T06:20:11;3.08;;;2.78;;
67979;SDS011;54760;47.490;19.030;2023-04-03T06:22:37;3.22;;;2.62;;
67979;SDS011;54760;47.490;19.030;2023-04-03T06:25:02;4.25;;;2.70;;
67979;SDS011;54760;47.490;19.030;2023-04-03T06:27:28;3.78;;;2.40;;
67979;SDS011;54760;47.490;19.030;2023-04-03T06:29:54;7.80;;;2.62;;
67979;SDS011;54760;47.490;19.030;2023-04-03T06:32:19;4.45;;;2.22;;
67979;SDS011;54760;47.490;19.030;2023-04-03T06:34:45;6.37;;;2.70;;
67979;SDS011;54760;47.490;19.030;2023-04-03T06:37:21;3.25;;;2.50;;
67979;SDS011;54760;47.490;19.030;2023-04-03T06:39:47;3.65;;;2.47;;
67979;SDS011;54760;47.490;19.030;2023-04-03T06:42:13;3.30;;;2.35;;
67979;SDS011;54760;47.490;19.030;2023-04-03T06:44:39;2.85;;;2.08;;
67979;SDS011;54760;47.490;19.030;2023-04-03T06:47:04;3.30;;;2.58;;
67979;SDS011;54760;47.490;19.030;2023-04-03T06:49:30;5.57;;;2.62;;
67979;SDS011;54760;47.490;19.030;2023-04-03T06:51:57;3.55;;;2.40;;
67979;SDS011;54760;47.490;19.030;2023-04-03T06:54:22;3.78;;;2.30;;
67979;SDS011;54760;47.490;19.030;2023-04-03T06:56:48;3.70;;;2.40;;
67979;SDS011;54760;47.490;19.030;2023-04-03T06:59:14;4.60;;;2.80;;
67979;SDS011;54760;47.490;19.030;2023-04-03T07:01:40;4.55;;;2.55;;
67979;SDS011;54760;47.490;19.030;2023-04-03T07:04:07;5.90;;;2.60;;
67979;SDS011;54760;47.490;19.030;2023-04-03T07:06:36;4.75;;;2.72;;
67979;SDS011;54760;47.490;19.030;2023-04-03T07:09:01;2.70;;;2.00;;
67979;SDS011;54760;47.490;19.030;2023-04-03T07:11:27;3.17;;;2.10;;
67979;SDS011;54760;47.490;19.030;2023-04-03T07:13:53;3.25;;;2.20;;
67979;SDS011;54760;47.490;19.030;2023-04-03T07:16:19;4.53;;;2.33;;
67979;SDS011;54760;47.490;19.030;2023-04-03T07:18:45;3.30;;;2.10;;
67979;SDS011;54760;47.490;19.030;2023-04-03T07:21:11;3.33;;;2.17;;
67979;SDS011;54760;47.490;19.030;2023-04-03T07:23:38;2.62;;;1.98;;
67979;SDS011;54760;47.490;19.030;2023-04-03T07:26:03;3.08;;;2.03;;
67979;SDS011;54760;47.490;19.030;2023-04-03T07:28:29;3.67;;;2.00;;
67979;SDS011;54760;47.490;19.030;2023-04-03T07:31:02;2.45;;;1.90;;
67979;SDS011;54760;47.490;19.030;2023-04-03T07:33:31;3.40;;;1.85;;
67979;SDS011;54760;47.490;19.030;2023-04-03T07:35:56;3.70;;;2.00;;
67979;SDS011;54760;47.490;19.030;2023-04-03T07:38:22;2.60;;;1.60;;
67979;SDS011;54760;47.490;19.030;2023-04-03T07:40:48;3.28;;;2.30;;
67979;SDS011;54760;47.490;19.030;2023-04-03T07:43:15;2.47;;;1.70;;
67979;SDS011;54760;47.490;19.030;2023-04-03T07:45:41;5.07;;;2.10;;
67979;SDS011;54760;47.490;19.030;2023-04-03T07:48:08;3.95;;;2.00;;
67979;SDS011;54760;47.490;19.030;2023-04-03T07:50:37;2.90;;;1.98;;
67979;SDS011;54760;47.490;19.030;2023-04-03T07:53:05;5.93;;;2.00;;
67979;SDS011;54760;47.490;19.030;2023-04-03T07:55:33;4.55;;;1.90;;
67979;SDS011;54760;47.490;19.030;2023-04-03T07:57:58;2.60;;;1.73;;
67979;SDS011;54760;47.490;19.030;2023-04-03T08:00:24;2.17;;;1.83;;
67979;SDS011;54760;47.490;19.030;2023-04-03T08:02:50;2.00;;;1.42;;
67979;SDS011;54760;47.490;19.030;2023-04-03T08:05:19;2.53;;;1.80;;
67979;SDS011;54760;47.490;19.030;2023-04-03T08:07:45;2.45;;;1.80;;
67979;SDS011;54760;47.490;19.030;2023-04-03T08:10:11;2.50;;;1.83;;
67979;SDS011;54760;47.490;19.030;2023-04-03T08:12:37;3.25;;;1.90;;
67979;SDS011;54760;47.490;19.030;2023-04-03T08:15:02;2.90;;;1.98;;
67979;SDS011;54760;47.490;19.030;2023-04-03T08:17:28;2.20;;;1.83;;
67979;SDS011;54760;47.490;19.030;2023-04-03T08:19:54;4.37;;;1.80;;
67979;SDS011;54760;47.490;19.030;2023-04-03T08:22:29;2.17;;;1.60;;
67979;SDS011;54760;47.490;19.030;2023-04-03T08:24:56;2.30;;;1.50;;
67979;SDS011;54760;47.490;19.030;2023-04-03T08:27:22;2.65;;;1.70;;
67979;SDS011;54760;47.490;19.030;2023-04-03T08:29:47;2.65;;;1.92;;
67979;SDS011;54760;47.490;19.030;2023-04-03T08:32:12;3.97;;;1.80;;
67979;SDS011;54760;47.490;19.030;2023-04-03T08:34:38;2.08;;;1.60;;
67979;SDS011;54760;47.490;19.030;2023-04-03T08:37:04;4.43;;;1.80;;
67979;SDS011;54760;47.490;19.030;2023-04-03T08:39:31;2.78;;;1.70;;
67979;SDS011;54760;47.490;19.030;2023-04-03T08:41:57;2.87;;;1.60;;
67979;SDS011;54760;47.490;19.030;2023-04-03T08:49:42;2.97;;;1.55;;
67979;SDS011;54760;47.490;19.030;2023-04-03T08:52:14;2.35;;;1.42;;
67979;SDS011;54760;47.490;19.030;2023-04-03T08:54:50;3.58;;;1.40;;
67979;SDS011;54760;47.490;19.030;2023-04-03T08:57:20;7.00;;;1.50;;
67979;SDS011;54760;47.490;19.030;2023-04-03T08:59:56;4.62;;;1.52;;
67979;SDS011;54760;47.490;19.030;2023-04-03T09:02:35;1.92;;;1.40;;
67979;SDS011;54760;47.490;19.030;2023-04-03T09:05:18;4.85;;;1.60;;
67979;SDS011;54760;47.490;19.030;2023-04-03T09:08:14;2.37;;;1.35;;
67979;SDS011;54760;47.490;19.030;2023-04-03T09:10:47;4.60;;;2.00;;
67979;SDS011;54760;47.490;19.030;2023-04-03T09:19:09;3.37;;;1.27;;
67979;SDS011;54760;47.490;19.030;2023-04-03T09:21:38;2.23;;;1.30;;
67979;SDS011;54760;47.490;19.030;2023-04-03T09:24:07;2.17;;;1.40;;
67979;SDS011;54760;47.490;19.030;2023-04-03T09:26:39;1.87;;;1.20;;
67979;SDS011;54760;47.490;19.030;2023-04-03T09:29:10;2.90;;;1.30;;
67979;SDS011;54760;47.490;19.030;2023-04-03T09:31:44;1.95;;;1.20;;
67979;SDS011;54760;47.490;19.030;2023-04-03T09:34:36;3.67;;;1.30;;
67979;SDS011;54760;47.490;19.030;2023-04-03T09:37:07;2.50;;;1.92;;
67979;SDS011;54760;47.490;19.030;2023-04-03T09:39:48;2.50;;;1.40;;
67979;SDS011;54760;47.490;19.030;2023-04-03T09:42:18;3.47;;;1.30;;
67979;SDS011;54760;47.490;19.030;2023-04-03T09:47:28;1.87;;;1.40;;
67979;SDS011;54760;47.490;19.030;2023-04-03T09:52:39;1.58;;;1.27;;
67979;SDS011;54760;47.490;19.030;2023-04-03T09:55:07;1.80;;;1.15;;
67979;SDS011;54760;47.490;19.030;2023-04-03T09:57:38;2.47;;;1.30;;
67979;SDS011;54760;47.490;19.030;2023-04-03T10:00:05;2.35;;;1.30;;
67979;SDS011;54760;47.490;19.030;2023-04-03T10:02:44;1.90;;;1.20;;
67979;SDS011;54760;47.490;19.030;2023-04-03T10:10:43;1.95;;;1.50;;
67979;SDS011;54760;47.490;19.030;2023-04-03T10:13:17;2.55;;;1.40;;
67979;SDS011;54760;47.490;19.030;2023-04-03T10:18:49;1.60;;;1.20;;
67979;SDS011;54760;47.490;19.030;2023-04-03T10:24:00;3.13;;;1.37;;
67979;SDS011;54760;47.490;19.030;2023-04-03T10:34:42;4.30;;;1.52;;
67979;SDS011;54760;47.490;19.030;2023-04-03T10:48:04;2.70;;;1.30;;
67979;SDS011;54760;47.490;19.030;2023-04-03T10:53:20;1.48;;;1.23;;
67979;SDS011;54760;47.490;19.030;2023-04-03T10:59:04;3.00;;;1.20;;
67979;SDS011;54760;47.490;19.030;2023-04-03T11:01:41;2.45;;;1.20;;
67979;SDS011;54760;47.490;19.030;2023-04-03T11:04:09;1.45;;;1.20;;
67979;SDS011;54760;47.490;19.030;2023-04-03T11:06:45;5.32;;;1.60;;
67979;SDS011;54760;47.490;19.030;2023-04-03T11:09:19;1.48;;;1.08;;
67979;SDS011;54760;47.490;19.030;2023-04-03T11:11:46;1.60;;;1.17;;
67979;SDS011;54760;47.490;19.030;2023-04-03T11:16:57;2.28;;;1.30;;
67979;SDS011;54760;47.490;19.030;2023-04-03T11:20:14;1.92;;;1.17;;
67979;SDS011;54760;47.490;19.030;2023-04-03T11:27:42;2.70;;;1.33;;
67979;SDS011;54760;47.490;19.030;2023-04-03T11:35:36;1.95;;;1.20;;
67979;SDS011;54760;47.490;19.030;2023-04-03T11:38:10;1.62;;;1.10;;
67979;SDS011;54760;47.490;19.030;2023-04-03T11:40:45;1.95;;;1.10;;
67979;SDS011;54760;47.490;19.030;2023-04-03T11:43:25;1.27;;;1.02;;
67979;SDS011;54760;47.490;19.030;2023-04-03T11:46:04;2.97;;;1.33;;
67979;SDS011;54760;47.490;19.030;2023-04-03T11:51:40;1.90;;;1.10;;
67979;SDS011;54760;47.490;19.030;2023-04-03T11:53:52;1.50;;;1.00;;
67979;SDS011;54760;47.490;19.030;2023-04-03T12:04:08;1.70;;;1.05;;
67979;SDS011;54760;47.490;19.030;2023-04-03T12:09:05;5.15;;;1.00;;
67979;SDS011;54760;47.490;19.030;2023-04-03T12:11:46;2.00;;;0.80;;
67979;SDS011;54760;47.490;19.030;2023-04-03T12:14:15;3.83;;;1.12;;
67979;SDS011;54760;47.490;19.030;2023-04-03T12:30:04;1.45;;;0.90;;
67979;SDS011;54760;47.490;19.030;2023-04-03T12:48:17;2.25;;;1.10;;
67979;SDS011;54760;47.490;19.030;2023-04-03T12:50:47;2.17;;;1.15;;
67979;SDS011;54760;47.490;19.030;2023-04-03T12:53:21;1.55;;;1.10;;
67979;SDS011;54760;47.490;19.030;2023-04-03T12:55:54;2.42;;;0.85;;
67979;SDS011;54760;47.490;19.030;2023-04-03T12:58:27;1.33;;;0.90;;
67979;SDS011;54760;47.490;19.030;2023-04-03T13:01:00;1.25;;;0.95;;
67979;SDS011;54760;47.490;19.030;2023-04-03T13:03:34;1.65;;;1.08;;
67979;SDS011;54760;47.490;19.030;2023-04-03T13:06:04;4.87;;;1.30;;
67979;SDS011;54760;47.490;19.030;2023-04-03T13:08:30;3.45;;;1.10;;
67979;SDS011;54760;47.490;19.030;2023-04-03T13:11:08;2.60;;;1.25;;
67979;SDS011;54760;47.490;19.030;2023-04-03T13:13:36;1.27;;;0.90;;
67979;SDS011;54760;47.490;19.030;2023-04-03T13:16:10;1.33;;;0.98;;
67979;SDS011;54760;47.490;19.030;2023-04-03T13:18:36;1.62;;;1.10;;
67979;SDS011;54760;47.490;19.030;2023-04-03T13:21:06;1.90;;;1.05;;
67979;SDS011;54760;47.490;19.030;2023-04-03T13:23:39;1.40;;;1.08;;
67979;SDS011;54760;47.490;19.030;2023-04-03T13:26:07;2.10;;;1.30;;
67979;SDS011;54760;47.490;19.030;2023-04-03T13:28:34;3.35;;;1.12;;
67979;SDS011;54760;47.490;19.030;2023-04-03T13:31:08;2.60;;;1.02;;
67979;SDS011;54760;47.490;19.030;2023-04-03T13:36:22;1.70;;;0.98;;
67979;SDS011;54760;47.490;19.030;2023-04-03T13:39:19;1.85;;;1.20;;
67979;SDS011;54760;47.490;19.030;2023-04-03T13:41:49;1.75;;;1.08;;
67979;SDS011;54760;47.490;19.030;2023-04-03T13:44:30;3.45;;;1.10;;
67979;SDS011;54760;47.490;19.030;2023-04-03T13:51:56;2.75;;;1.20;;
67979;SDS011;54760;47.490;19.030;2023-04-03T13:54:23;4.60;;;1.25;;
67979;SDS011;54760;47.490;19.030;2023-04-03T13:56:54;3.53;;;1.27;;
67979;SDS011;54760;47.490;19.030;2023-04-03T13:59:28;4.87;;;1.40;;
67979;SDS011;54760;47.490;19.030;2023-04-03T14:04:27;1.73;;;1.05;;
67979;SDS011;54760;47.490;19.030;2023-04-03T14:06:55;2.33;;;1.30;;
67979;SDS011;54760;47.490;19.030;2023-04-03T14:09:21;1.50;;;1.02;;
67979;SDS011;54760;47.490;19.030;2023-04-03T14:11:50;3.85;;;1.20;;
67979;SDS011;54760;47.490;19.030;2023-04-03T14:14:20;5.05;;;1.40;;
67979;SDS011;54760;47.490;19.030;2023-04-03T14:16:53;1.50;;;1.00;;
67979;SDS011;54760;47.490;19.030;2023-04-03T14:19:28;5.72;;;1.50;;
67979;SDS011;54760;47.490;19.030;2023-04-03T14:21:56;3.25;;;1.50;;
67979;SDS011;54760;47.490;19.030;2023-04-03T14:24:22;4.20;;;1.70;;
67979;SDS011;54760;47.490;19.030;2023-04-03T14:26:49;2.40;;;1.40;;
67979;SDS011;54760;47.490;19.030;2023-04-03T14:29:16;1.77;;;1.10;;
67979;SDS011;54760;47.490;19.030;2023-04-03T14:31:43;2.90;;;1.20;;
67979;SDS011;54760;47.490;19.030;2023-04-03T14:34:11;1.80;;;1.10;;
67979;SDS011;54760;47.490;19.030;2023-04-03T14:36:37;3.40;;;1.30;;
67979;SDS011;54760;47.490;19.030;2023-04-03T14:39:05;4.72;;;3.03;;
67979;SDS011;54760;47.490;19.030;2023-04-03T14:41:31;2.30;;;1.40;;
67979;SDS011;54760;47.490;19.030;2023-04-03T14:43:57;1.80;;;1.20;;
67979;SDS011;54760;47.490;19.030;2023-04-03T14:46:29;2.15;;;1.30;;
67979;SDS011;54760;47.490;19.030;2023-04-03T14:48:57;2.30;;;1.30;;
67979;SDS011;54760;47.490;19.030;2023-04-03T14:51:24;3.62;;;1.30;;
67979;SDS011;54760;47.490;19.030;2023-04-03T14:53:50;4.30;;;1.80;;
67979;SDS011;54760;47.490;19.030;2023-04-03T14:56:26;3.08;;;1.10;;
67979;SDS011;54760;47.490;19.030;2023-04-03T14:58:57;4.10;;;1.60;;
67979;SDS011;54760;47.490;19.030;2023-04-03T15:01:25;1.62;;;1.40;;
67979;SDS011;54760;47.490;19.030;2023-04-03T15:03:55;2.60;;;1.25;;
67979;SDS011;54760;47.490;19.030;2023-04-03T15:06:20;2.45;;;1.20;;
67979;SDS011;54760;47.490;19.030;2023-04-03T15:08:47;2.00;;;1.50;;
67979;SDS011;54760;47.490;19.030;2023-04-03T15:11:13;3.12;;;1.50;;
67979;SDS011;54760;47.490;19.030;2023-04-03T15:13:40;3.20;;;2.30;;
67979;SDS011;54760;47.490;19.030;2023-04-03T15:16:06;3.42;;;1.60;;
67979;SDS011;54760;47.490;19.030;2023-04-03T15:18:39;2.83;;;1.60;;
67979;SDS011;54760;47.490;19.030;2023-04-03T15:21:05;2.65;;;1.60;;
67979;SDS011;54760;47.490;19.030;2023-04-03T15:23:30;2.60;;;1.50;;
67979;SDS011;54760;47.490;19.030;2023-04-03T15:25:56;2.80;;;1.40;;
67979;SDS011;54760;47.490;19.030;2023-04-03T15:28:30;2.75;;;1.65;;
67979;SDS011;54760;47.490;19.030;2023-04-03T15:30:58;4.30;;;1.50;;
67979;SDS011;54760;47.490;19.030;2023-04-03T15:33:23;8.50;;;1.98;;
67979;SDS011;54760;47.490;19.030;2023-04-03T15:35:49;3.45;;;1.70;;
67979;SDS011;54760;47.490;19.030;2023-04-03T15:38:15;2.70;;;1.62;;
67979;SDS011;54760;47.490;19.030;2023-04-03T15:40:41;2.30;;;1.37;;
67979;SDS011;54760;47.490;19.030;2023-04-03T15:43:07;4.50;;;1.40;;
67979;SDS011;54760;47.490;19.030;2023-04-03T15:45:33;3.00;;;1.50;;
67979;SDS011;54760;47.490;19.030;2023-04-03T15:48:01;2.17;;;1.30;;
67979;SDS011;54760;47.490;19.030;2023-04-03T15:50:28;2.92;;;1.75;;
67979;SDS011;54760;47.490;19.030;2023-04-03T15:52:53;3.28;;;1.73;;
67979;SDS011;54760;47.490;19.030;2023-04-03T15:55:27;2.15;;;1.52;;
67979;SDS011;54760;47.490;19.030;2023-04-03T15:57:54;3.83;;;1.80;;
67979;SDS011;54760;47.490;19.030;2023-04-03T16:00:21;5.45;;;1.83;;
67979;SDS011;54760;47.490;19.030;2023-04-03T16:02:48;2.83;;;1.73;;
67979;SDS011;54760;47.490;19.030;2023-04-03T16:05:17;4.53;;;2.05;;
67979;SDS011;54760;47.490;19.030;2023-04-03T16:07:43;2.03;;;1.30;;
67979;SDS011;54760;47.490;19.030;2023-04-03T16:10:10;2.15;;;1.50;;
67979;SDS011;54760;47.490;19.030;2023-04-03T16:12:36;2.45;;;1.50;;
67979;SDS011;54760;47.490;19.030;2023-04-03T16:15:02;4.97;;;1.80;;
67979;SDS011;54760;47.490;19.030;2023-04-03T16:17:28;2.90;;;1.80;;
67979;SDS011;54760;47.490;19.030;2023-04-03T16:19:55;6.18;;;2.00;;
67979;SDS011;54760;47.490;19.030;2023-04-03T16:22:21;3.37;;;1.55;;
67979;SDS011;54760;47.490;19.030;2023-04-03T16:24:48;2.80;;;1.58;;
67979;SDS011;54760;47.490;19.030;2023-04-03T16:27:14;2.87;;;1.65;;
67979;SDS011;54760;47.490;19.030;2023-04-03T16:29:40;3.67;;;1.60;;
67979;SDS011;54760;47.490;19.030;2023-04-03T16:32:06;2.70;;;1.75;;
67979;SDS011;54760;47.490;19.030;2023-04-03T16:34:31;4.65;;;1.95;;
67979;SDS011;54760;47.490;19.030;2023-04-03T16:36:57;2.10;;;1.58;;
67979;SDS011;54760;47.490;19.030;2023-04-03T16:39:23;2.42;;;1.50;;
67979;SDS011;54760;47.490;19.030;2023-04-03T16:41:49;3.08;;;1.48;;
67979;SDS011;54760;47.490;19.030;2023-04-03T16:44:14;3.40;;;1.65;;